createdAt,value
2023-02-27T00:00:04.144Z,1.33
2023-02-27T00:07:39.578Z,1.17
2023-02-27T00:15:16.977Z,1.10
2023-02-27T00:22:52.585Z,0.93
2023-02-27T00:30:26.817Z,1.00
2023-02-27T00:45:53.548Z,0.90
2023-02-27T01:01:03.348Z,1.00
2023-02-27T01:08:38.865Z,0.90
2023-02-27T01:16:12.865Z,1.00
2023-02-27T01:31:21.877Z,1.05
2023-02-27T01:38:57.252Z,0.90
2023-02-27T01:46:32.698Z,1.20
2023-02-27T01:54:11.590Z,1.25
2023-02-27T02:01:46.051Z,0.90
2023-02-27T02:09:22.878Z,0.80
2023-02-27T02:17:10.159Z,1.20
2023-02-27T02:34:03.272Z,0.70
2023-02-27T02:41:52.746Z,1.20
2023-02-27T02:49:34.553Z,0.93
2023-02-27T02:57:15.306Z,1.08
2023-02-27T03:04:54.746Z,1.20
2023-02-27T03:12:33.447Z,1.40
2023-02-27T03:20:10.342Z,1.27
2023-02-27T03:27:51.313Z,1.08
2023-02-27T03:35:31.431Z,0.80
2023-02-27T03:43:18.162Z,1.30
2023-02-27T03:50:52.260Z,1.88
2023-02-27T03:58:27.644Z,1.20
2023-02-27T04:06:21.627Z,1.02
2023-02-27T04:14:16.374Z,1.50
2023-02-27T04:22:01.481Z,1.13
2023-02-27T04:29:46.481Z,1.48
2023-02-27T04:37:27.283Z,1.40
2023-02-27T04:45:06.556Z,1.10
2023-02-27T04:52:44.920Z,1.58
2023-02-27T05:00:24.687Z,1.35
2023-02-27T05:08:03.590Z,1.17
2023-02-27T05:15:44.386Z,1.23
2023-02-27T05:23:26.621Z,1.35
2023-02-27T05:31:08.548Z,1.10
2023-02-27T05:38:45.869Z,1.40
2023-02-27T05:54:23.716Z,1.55
2023-02-27T06:01:58.905Z,1.35
2023-02-27T06:09:32.989Z,1.42
2023-02-27T06:17:08.537Z,1.38
2023-02-27T06:24:42.465Z,1.20
2023-02-27T06:32:17.757Z,1.58
2023-02-27T06:39:52.093Z,1.35
2023-02-27T06:47:27.408Z,2.10
2023-02-27T06:55:01.275Z,1.90
2023-02-27T07:02:36.794Z,1.38
2023-02-27T07:10:14.703Z,1.55
2023-02-27T07:17:50.170Z,1.25
2023-02-27T07:25:24.260Z,1.40
2023-02-27T07:32:59.419Z,1.58
2023-02-27T07:48:26.619Z,1.65
2023-02-27T07:56:00.501Z,1.63
2023-02-27T08:11:09.521Z,1.98
2023-02-27T08:18:44.807Z,1.85
2023-02-27T08:26:18.818Z,1.98
2023-02-27T08:34:04.565Z,2.20
2023-02-27T08:41:43.164Z,3.97
2023-02-27T08:49:20.589Z,2.85
2023-02-27T08:56:55.557Z,3.58
2023-02-27T09:04:31.193Z,3.33
2023-02-27T09:12:05.697Z,3.60
2023-02-27T09:19:41.277Z,4.65
2023-02-27T09:27:15.254Z,3.60
2023-02-27T09:34:50.622Z,3.45
2023-02-27T09:42:27.336Z,4.05
2023-02-27T09:50:04.424Z,4.28
2023-02-27T09:57:45.272Z,3.70
2023-02-27T10:05:32.307Z,3.20
2023-02-27T10:13:22.567Z,4.35
2023-02-27T10:21:00.388Z,3.17
2023-02-27T10:28:34.997Z,3.90
2023-02-27T10:36:18.059Z,3.67
2023-02-27T10:44:00.612Z,4.07
2023-02-27T10:51:38.293Z,2.50
2023-02-27T10:59:20.626Z,1.85
2023-02-27T11:06:57.410Z,1.88
2023-02-27T11:14:34.035Z,1.08
2023-02-27T11:22:16.600Z,1.50
2023-02-27T11:29:58.921Z,0.60
2023-02-27T11:37:36.879Z,0.68
2023-02-27T11:46:28.222Z,0.50
2023-02-27T12:01:39.892Z,0.75
2023-02-27T12:09:36.736Z,0.65
2023-02-27T12:17:20.641Z,0.63
2023-02-27T12:25:03.677Z,0.70
2023-02-27T12:32:44.415Z,0.40
2023-02-27T12:40:21.875Z,0.43
2023-02-27T12:48:05.199Z,0.30
2023-02-27T12:55:48.794Z,0.52
2023-02-27T13:03:28.607Z,0.52
2023-02-27T13:11:14.053Z,0.45
2023-02-27T13:18:52.455Z,0.60
2023-02-27T13:26:32.628Z,0.55
2023-02-27T13:34:15.660Z,0.30
2023-02-27T13:41:51.028Z,0.32
2023-02-27T13:57:26.078Z,0.35
2023-02-27T14:05:03.525Z,0.70
2023-02-27T14:12:48.059Z,0.32
2023-02-27T14:20:51.872Z,0.30
2023-02-27T14:28:32.612Z,0.40
2023-02-27T14:36:10.609Z,0.30
2023-02-27T14:43:55.299Z,0.32
2023-02-27T14:51:33.428Z,0.60
2023-02-27T14:59:23.583Z,0.35
2023-02-27T15:06:59.059Z,0.25
2023-02-27T15:14:38.145Z,0.30
2023-02-27T15:22:36.132Z,0.63
2023-02-27T15:30:22.872Z,0.65
2023-02-27T15:37:58.232Z,0.60
2023-02-27T15:45:36.331Z,0.50
2023-02-27T15:53:14.914Z,0.68
2023-02-27T16:00:51.952Z,0.50
2023-02-27T16:08:26.433Z,0.55
2023-02-27T16:16:03.836Z,1.30
2023-02-27T16:23:37.911Z,0.77
2023-02-27T16:39:16.485Z,1.17
2023-02-27T16:46:51.981Z,0.90
2023-02-27T16:54:25.982Z,1.40
2023-02-27T17:02:03.827Z,0.97
2023-02-27T17:09:37.795Z,0.88
2023-02-27T17:17:13.044Z,0.90
2023-02-27T17:24:47.211Z,0.90
2023-02-27T17:32:22.511Z,1.05
2023-02-27T17:39:56.521Z,0.90
2023-02-27T17:47:31.842Z,1.13
2023-02-27T18:02:59.447Z,0.98
2023-02-27T18:10:33.278Z,1.02
2023-02-27T18:18:09.153Z,0.97
2023-02-27T18:25:43.012Z,1.13
2023-02-27T18:33:19.590Z,1.30
2023-02-27T18:40:53.856Z,1.67
2023-02-27T18:48:29.267Z,1.20
2023-02-27T18:56:05.020Z,1.80
2023-02-27T19:03:40.461Z,2.00
2023-02-27T19:19:15.582Z,1.80
2023-02-27T19:26:50.514Z,2.58
2023-02-27T19:42:18.165Z,2.42
2023-02-27T19:49:53.483Z,2.47
2023-02-27T19:57:27.985Z,2.38
2023-02-27T20:05:03.699Z,2.65
2023-02-27T20:12:37.528Z,2.80
2023-02-27T20:20:14.862Z,2.23
2023-02-27T20:35:42.725Z,3.25
2023-02-27T20:43:16.676Z,4.03
2023-02-27T20:50:52.211Z,4.65
2023-02-27T20:58:26.440Z,3.60
2023-02-27T21:21:14.655Z,1.90
2023-02-27T21:28:52.563Z,1.63
2023-02-27T21:36:29.554Z,1.90
2023-02-27T21:44:05.517Z,2.08
2023-02-27T21:51:41.415Z,2.80
2023-02-27T21:59:16.990Z,2.30
2023-02-27T22:06:53.448Z,2.50
2023-02-27T22:14:28.542Z,2.40
2023-02-27T22:22:03.718Z,3.17
2023-02-27T22:29:38.810Z,3.00
2023-02-27T22:37:16.260Z,2.90
2023-02-27T22:44:50.380Z,3.22
2023-02-27T22:52:25.679Z,3.10
2023-02-27T22:59:59.619Z,3.15
2023-02-27T23:07:34.966Z,2.83
2023-02-27T23:15:10.860Z,3.45
2023-02-27T23:22:46.511Z,3.33
2023-02-27T23:30:20.498Z,3.00
2023-02-27T23:37:57.122Z,2.72
2023-02-27T23:53:25.041Z,2.10
